createdAt,value
2023-03-02T00:00:16.333Z,1.80
2023-03-02T00:01:16.297Z,1.70
2023-03-02T00:02:16.299Z,2.00
2023-03-02T00:03:16.260Z,1.80
2023-03-02T00:04:16.246Z,1.80
2023-03-02T00:05:16.241Z,1.70
2023-03-02T00:06:16.242Z,2.60
2023-03-02T00:07:16.214Z,1.90
2023-03-02T00:08:16.208Z,1.50
2023-03-02T00:09:16.246Z,1.90
2023-03-02T00:10:16.191Z,1.70
2023-03-02T00:11:16.225Z,2.00
2023-03-02T00:12:16.163Z,1.70
2023-03-02T00:13:16.157Z,2.10
2023-03-02T00:14:16.149Z,2.50
2023-03-02T00:15:16.150Z,1.70
2023-03-02T00:16:16.200Z,2.60
2023-03-02T00:17:16.119Z,2.20
2023-03-02T00:18:16.108Z,2.20
2023-03-02T00:19:16.097Z,2.10
2023-03-02T00:20:16.080Z,1.80
2023-03-02T00:21:16.101Z,2.10
2023-03-02T00:22:16.069Z,1.70
2023-03-02T00:23:16.116Z,2.30
2023-03-02T00:24:16.055Z,1.70
2023-03-02T00:25:16.033Z,1.90
2023-03-02T00:26:16.045Z,1.90
2023-03-02T00:27:16.043Z,2.10
2023-03-02T00:28:16.009Z,2.80
2023-03-02T00:29:15.994Z,1.90
2023-03-02T00:30:16.012Z,1.70
2023-03-02T00:31:16.043Z,1.50
2023-03-02T00:32:16.009Z,2.10
2023-03-02T00:33:15.975Z,2.10
2023-03-02T00:34:15.972Z,1.70
2023-03-02T00:35:15.932Z,1.60
2023-03-02T00:36:15.951Z,2.30
2023-03-02T00:37:15.951Z,1.80
2023-03-02T00:38:15.919Z,1.70
2023-03-02T00:39:15.903Z,1.90
2023-03-02T00:40:15.880Z,1.70
2023-03-02T00:41:15.895Z,2.10
2023-03-02T00:42:15.897Z,1.60
2023-03-02T00:43:15.884Z,2.00
2023-03-02T00:44:15.849Z,1.80
2023-03-02T00:45:15.851Z,2.20
2023-03-02T00:46:15.912Z,1.60
2023-03-02T00:47:15.819Z,2.50
2023-03-02T00:48:15.815Z,1.50
2023-03-02T00:49:15.857Z,1.80
2023-03-02T00:50:15.777Z,1.90
2023-03-02T00:51:15.801Z,1.70
2023-03-02T00:52:15.764Z,1.90
2023-03-02T00:53:15.758Z,1.80
2023-03-02T00:54:15.749Z,2.00
2023-03-02T00:55:15.738Z,2.10
2023-03-02T00:56:15.731Z,1.90
2023-03-02T00:57:15.748Z,2.00
2023-03-02T00:58:15.716Z,1.90
2023-03-02T00:59:22.213Z,1.90
2023-03-02T01:00:23.168Z,1.80
2023-03-02T01:01:25.175Z,1.70
2023-03-02T01:02:22.193Z,1.80
2023-03-02T01:03:23.244Z,2.00
2023-03-02T01:04:15.638Z,1.70
2023-03-02T01:05:15.641Z,1.90
2023-03-02T01:06:15.645Z,2.20
2023-03-02T01:07:15.640Z,2.00
2023-03-02T01:08:15.609Z,2.00
2023-03-02T01:09:15.605Z,2.10
2023-03-02T01:10:15.598Z,1.60
2023-03-02T01:11:15.588Z,2.50
2023-03-02T01:12:23.264Z,1.90
2023-03-02T01:13:22.059Z,2.30
2023-03-02T01:14:22.035Z,1.90
2023-03-02T01:15:15.566Z,1.90
2023-03-02T01:16:15.581Z,2.50
2023-03-02T01:17:15.551Z,2.20
2023-03-02T01:18:15.509Z,2.10
2023-03-02T01:19:15.515Z,2.10
2023-03-02T01:20:15.494Z,1.70
2023-03-02T01:21:15.526Z,2.40
2023-03-02T01:22:15.499Z,1.60
2023-03-02T01:23:15.466Z,2.30
2023-03-02T01:24:15.448Z,2.00
2023-03-02T01:25:15.447Z,2.00
2023-03-02T01:26:15.440Z,2.30
2023-03-02T01:27:15.454Z,2.00
2023-03-02T01:28:15.405Z,2.10
2023-03-02T01:29:15.412Z,1.80
2023-03-02T01:30:15.400Z,1.80
2023-03-02T01:31:15.454Z,2.50
2023-03-02T01:32:15.431Z,2.60
2023-03-02T01:33:15.371Z,1.90
2023-03-02T01:34:15.368Z,2.20
2023-03-02T01:35:15.355Z,2.30
2023-03-02T01:36:15.345Z,1.90
2023-03-02T01:37:15.391Z,2.30
2023-03-02T01:38:15.366Z,1.40
2023-03-02T01:39:15.304Z,2.10
2023-03-02T01:40:15.311Z,2.10
2023-03-02T01:41:15.290Z,3.00
2023-03-02T01:42:15.292Z,2.10
2023-03-02T01:43:15.270Z,2.00
2023-03-02T01:44:21.750Z,2.40
2023-03-02T01:45:21.769Z,2.60
2023-03-02T01:46:21.739Z,2.00
2023-03-02T01:47:22.821Z,2.10
2023-03-02T01:48:21.708Z,2.00
2023-03-02T01:49:15.203Z,2.10
2023-03-02T01:50:15.202Z,2.40
2023-03-02T01:51:15.180Z,2.30
2023-03-02T01:52:15.263Z,2.10
2023-03-02T01:53:15.157Z,2.00
2023-03-02T01:54:15.166Z,2.20
2023-03-02T01:55:15.147Z,1.90
2023-03-02T01:56:15.136Z,2.40
2023-03-02T01:57:15.153Z,1.90
2023-03-02T01:58:15.143Z,2.50
2023-03-02T01:59:15.107Z,2.10
2023-03-02T02:00:15.097Z,2.10
2023-03-02T02:01:15.106Z,2.00
2023-03-02T02:02:15.141Z,1.80
2023-03-02T02:03:15.061Z,2.30
2023-03-02T02:04:15.146Z,2.20
2023-03-02T02:05:15.042Z,2.30
2023-03-02T02:06:15.040Z,2.30
2023-03-02T02:07:15.044Z,2.60
2023-03-02T02:08:15.024Z,2.00
2023-03-02T02:09:15.008Z,1.90
2023-03-02T02:10:15.000Z,2.00
2023-03-02T02:11:14.980Z,1.90
2023-03-02T02:12:15.009Z,2.20
2023-03-02T02:13:14.966Z,1.90
2023-03-02T02:14:14.955Z,2.20
2023-03-02T02:15:14.952Z,2.20
2023-03-02T02:16:14.989Z,2.20
2023-03-02T02:17:14.954Z,2.50
2023-03-02T02:18:14.920Z,2.50
2023-03-02T02:19:14.907Z,2.30
2023-03-02T02:20:14.912Z,2.80
2023-03-02T02:21:14.895Z,4.00
2023-03-02T02:22:14.884Z,2.80
2023-03-02T02:23:14.902Z,2.70
2023-03-02T02:24:14.870Z,2.90
2023-03-02T02:25:14.845Z,2.90
2023-03-02T02:26:14.857Z,3.20
2023-03-02T02:27:14.847Z,2.60
2023-03-02T02:28:23.352Z,3.00
2023-03-02T02:29:21.319Z,2.70
2023-03-02T02:30:14.793Z,3.40
2023-03-02T02:31:21.319Z,2.70
2023-03-02T02:32:14.966Z,2.90
2023-03-02T02:33:23.404Z,2.80
2023-03-02T02:34:21.251Z,2.70
2023-03-02T02:35:14.808Z,3.50
2023-03-02T02:36:21.230Z,3.60
2023-03-02T02:37:21.247Z,3.20
2023-03-02T02:38:14.736Z,3.60
2023-03-02T02:39:14.705Z,3.20
2023-03-02T02:40:21.222Z,4.20
2023-03-02T02:41:21.225Z,2.20
2023-03-02T02:42:21.218Z,2.80
2023-03-02T02:43:14.690Z,3.60
2023-03-02T02:44:14.676Z,3.30
2023-03-02T02:45:14.662Z,3.00
2023-03-02T02:46:14.716Z,3.10
2023-03-02T02:47:14.632Z,3.10
2023-03-02T02:48:14.654Z,3.80
2023-03-02T02:49:14.604Z,3.20
2023-03-02T02:50:14.605Z,3.50
2023-03-02T02:51:14.593Z,2.60
2023-03-02T02:52:14.586Z,3.20
2023-03-02T02:53:14.589Z,2.90
2023-03-02T02:54:14.564Z,3.50
2023-03-02T02:55:14.545Z,4.20
2023-03-02T02:56:14.553Z,4.10
2023-03-02T02:57:14.522Z,4.00
2023-03-02T02:58:14.558Z,3.60
2023-03-02T02:59:14.509Z,3.40
2023-03-02T03:00:14.506Z,3.50
2023-03-02T03:01:14.524Z,4.10
2023-03-02T03:02:14.496Z,4.10
2023-03-02T03:03:14.517Z,4.60
2023-03-02T03:04:14.495Z,4.10
2023-03-02T03:05:14.455Z,4.50
2023-03-02T03:06:14.438Z,4.80
2023-03-02T03:07:14.440Z,4.30
2023-03-02T03:08:14.441Z,4.60
2023-03-02T03:09:14.772Z,3.80
2023-03-02T03:10:14.416Z,4.90
2023-03-02T03:11:14.384Z,5.10
2023-03-02T03:12:14.391Z,4.80
2023-03-02T03:13:14.409Z,4.70
2023-03-02T03:14:21.877Z,6.20
2023-03-02T03:15:14.349Z,5.80
2023-03-02T03:16:14.371Z,4.70
2023-03-02T03:17:14.402Z,5.80
2023-03-02T03:18:14.331Z,6.60
2023-03-02T03:19:14.336Z,5.10
2023-03-02T03:20:14.327Z,7.00
2023-03-02T03:21:14.302Z,5.60
2023-03-02T03:22:14.287Z,6.70
2023-03-02T03:23:22.018Z,7.90
2023-03-02T03:24:20.767Z,7.30
2023-03-02T03:25:20.772Z,7.50
2023-03-02T03:26:14.250Z,8.60
2023-03-02T03:27:14.245Z,9.80
2023-03-02T03:28:14.227Z,8.40
2023-03-02T03:29:14.225Z,9.50
2023-03-02T03:30:14.212Z,9.70
2023-03-02T03:31:14.300Z,9.10
2023-03-02T03:32:14.242Z,9.80
2023-03-02T03:33:14.173Z,12.90
2023-03-02T03:34:14.309Z,12.60
2023-03-02T03:35:14.168Z,14.10
2023-03-02T03:36:14.149Z,15.70
2023-03-02T03:37:14.175Z,14.20
2023-03-02T03:38:14.159Z,17.10
2023-03-02T03:39:14.178Z,20.50
2023-03-02T03:40:14.128Z,16.90
2023-03-02T03:41:14.089Z,17.70
2023-03-02T03:42:14.095Z,20.10
2023-03-02T03:43:14.076Z,18.30
2023-03-02T03:44:14.103Z,20.90
2023-03-02T03:45:14.080Z,27.00
2023-03-02T03:46:14.147Z,22.10
2023-03-02T03:47:14.039Z,24.20
2023-03-02T03:48:14.024Z,25.90
2023-03-02T03:49:14.072Z,31.30
2023-03-02T03:50:14.002Z,24.70
2023-03-02T03:51:13.994Z,25.00
2023-03-02T03:52:13.984Z,28.40
2023-03-02T03:53:13.985Z,31.90
2023-03-02T03:54:14.018Z,33.60
2023-03-02T03:55:13.958Z,27.30
2023-03-02T03:56:13.939Z,25.70
2023-03-02T03:57:13.935Z,32.70
2023-03-02T03:58:14.036Z,26.20
2023-03-02T03:59:13.993Z,29.90
2023-03-02T04:00:13.918Z,29.10
2023-03-02T04:01:13.952Z,29.80
2023-03-02T04:02:13.892Z,34.10
2023-03-02T04:03:13.881Z,31.90
2023-03-02T04:04:13.892Z,35.60
2023-03-02T04:05:13.891Z,37.10
2023-03-02T04:06:13.844Z,36.10
2023-03-02T04:07:13.871Z,34.60
2023-03-02T04:08:13.818Z,34.60
2023-03-02T04:09:13.853Z,30.70
2023-03-02T04:10:13.823Z,36.20
2023-03-02T04:11:13.825Z,31.20
2023-03-02T04:12:13.788Z,32.90
2023-03-02T04:13:13.787Z,39.40
2023-03-02T04:14:13.786Z,40.90
2023-03-02T04:15:13.776Z,44.00
2023-03-02T04:16:13.790Z,44.50
2023-03-02T04:17:13.752Z,51.90
2023-03-02T04:18:13.730Z,48.40
2023-03-02T04:19:13.748Z,57.30
2023-03-02T04:20:13.709Z,45.00
2023-03-02T04:21:13.711Z,42.10
2023-03-02T04:22:13.703Z,46.00
2023-03-02T04:23:13.689Z,48.30
2023-03-02T04:24:13.699Z,46.00
2023-03-02T04:25:13.655Z,54.90
2023-03-02T04:26:13.659Z,51.50
2023-03-02T04:27:13.659Z,46.70
2023-03-02T04:28:15.394Z,40.40
2023-03-02T04:29:13.667Z,46.50
2023-03-02T04:30:13.615Z,45.30
2023-03-02T04:31:13.681Z,49.00
2023-03-02T04:32:13.683Z,53.00
2023-03-02T04:33:13.610Z,51.60
2023-03-02T04:34:13.602Z,49.20
2023-03-02T04:35:13.587Z,52.70
2023-03-02T04:36:13.562Z,57.00
2023-03-02T04:37:13.573Z,53.90
2023-03-02T04:38:13.555Z,55.80
2023-03-02T04:39:13.577Z,52.20
2023-03-02T04:40:13.522Z,52.80
2023-03-02T04:41:13.527Z,54.50
2023-03-02T04:42:13.502Z,53.70
2023-03-02T04:43:13.516Z,53.30
2023-03-02T04:44:13.489Z,46.20
2023-03-02T04:45:13.512Z,45.70
2023-03-02T04:46:13.506Z,49.90
2023-03-02T04:47:13.473Z,47.70
2023-03-02T04:48:13.454Z,47.90
2023-03-02T04:49:13.457Z,43.50
2023-03-02T04:50:13.464Z,44.20
2023-03-02T04:51:13.434Z,42.60
2023-03-02T04:52:13.446Z,38.20
2023-03-02T04:53:13.406Z,33.70
2023-03-02T04:54:13.416Z,38.90
2023-03-02T04:55:13.474Z,35.90
2023-03-02T04:56:13.380Z,38.10
2023-03-02T04:57:13.425Z,27.70
2023-03-02T04:58:13.402Z,35.60
2023-03-02T04:59:13.358Z,28.40
2023-03-02T05:00:13.370Z,25.90
2023-03-02T05:01:13.392Z,29.90
2023-03-02T05:02:13.435Z,30.70
2023-03-02T05:03:13.308Z,32.80
2023-03-02T05:04:13.367Z,35.50
2023-03-02T05:05:13.327Z,37.60
2023-03-02T05:06:13.302Z,37.60
2023-03-02T05:07:13.284Z,46.10
2023-03-02T05:08:13.263Z,51.10
2023-03-02T05:09:13.284Z,48.10
2023-03-02T05:10:23.047Z,54.30
2023-03-02T05:11:19.743Z,51.80
2023-03-02T05:12:19.730Z,55.90
2023-03-02T05:13:13.231Z,57.70
2023-03-02T05:14:13.203Z,63.70
2023-03-02T05:15:13.217Z,64.40
2023-03-02T05:16:13.260Z,52.30
2023-03-02T05:17:13.206Z,61.50
2023-03-02T05:18:13.177Z,61.00
2023-03-02T05:19:13.158Z,56.00
2023-03-02T05:20:13.184Z,51.60
2023-03-02T05:21:19.648Z,58.90
2023-03-02T05:22:13.133Z,62.90
2023-03-02T05:23:19.624Z,61.00
2023-03-02T05:24:19.611Z,59.70
2023-03-02T05:25:21.653Z,58.70
2023-03-02T05:26:13.097Z,61.40
2023-03-02T05:27:13.086Z,57.60
2023-03-02T05:28:13.101Z,55.10
2023-03-02T05:29:13.345Z,58.30
2023-03-02T05:30:13.106Z,55.20
2023-03-02T05:31:13.112Z,58.20
2023-03-02T05:32:13.097Z,56.00
2023-03-02T05:33:13.022Z,50.00
2023-03-02T05:34:13.045Z,50.50
2023-03-02T05:35:14.221Z,45.50
2023-03-02T05:36:12.997Z,40.30
2023-03-02T05:37:12.986Z,38.00
2023-03-02T05:38:12.985Z,40.00
2023-03-02T05:39:13.024Z,40.70
2023-03-02T05:40:12.988Z,35.90
2023-03-02T05:41:12.943Z,34.30
2023-03-02T05:42:12.948Z,37.90
2023-03-02T05:43:12.920Z,36.50
2023-03-02T05:44:12.928Z,36.90
2023-03-02T05:45:12.931Z,32.60
2023-03-02T05:46:12.919Z,34.80
2023-03-02T05:47:12.989Z,41.80
2023-03-02T05:48:12.977Z,42.30
2023-03-02T05:49:12.881Z,41.10
2023-03-02T05:50:12.891Z,34.80
2023-03-02T05:51:12.846Z,36.30
2023-03-02T05:52:12.841Z,39.80
2023-03-02T05:53:12.853Z,36.30
2023-03-02T05:54:12.846Z,34.80
2023-03-02T05:55:12.840Z,40.20
2023-03-02T05:56:12.797Z,38.70
2023-03-02T05:57:12.805Z,36.80
2023-03-02T05:58:12.824Z,37.90
2023-03-02T05:59:12.779Z,39.00
2023-03-02T06:00:12.801Z,44.40
2023-03-02T06:01:15.463Z,48.20
2023-03-02T06:02:12.767Z,47.70
2023-03-02T06:03:13.028Z,42.60
2023-03-02T06:04:12.715Z,46.70
2023-03-02T06:05:12.745Z,47.20
2023-03-02T06:06:12.719Z,46.20
2023-03-02T06:07:12.690Z,51.10
2023-03-02T06:08:12.683Z,50.00
2023-03-02T06:09:12.674Z,51.60
2023-03-02T06:10:12.729Z,50.40
2023-03-02T06:11:12.669Z,54.60
2023-03-02T06:12:12.640Z,52.90
2023-03-02T06:13:12.637Z,56.10
2023-03-02T06:14:12.635Z,56.00
2023-03-02T06:15:12.609Z,66.40
2023-03-02T06:16:12.710Z,66.60
2023-03-02T06:17:12.626Z,68.30
2023-03-02T06:18:12.628Z,71.60
2023-03-02T06:19:12.577Z,67.40
2023-03-02T06:20:12.563Z,68.50
2023-03-02T06:21:12.579Z,72.20
2023-03-02T06:22:12.544Z,74.40
2023-03-02T06:23:12.531Z,75.80
2023-03-02T06:24:12.551Z,75.40
2023-03-02T06:25:12.509Z,83.60
2023-03-02T06:26:12.550Z,86.60
2023-03-02T06:27:12.488Z,82.50
2023-03-02T06:28:12.482Z,88.90
2023-03-02T06:29:13.376Z,78.70
2023-03-02T06:30:12.473Z,87.00
2023-03-02T06:31:12.494Z,94.00
2023-03-02T06:32:12.496Z,96.10
2023-03-02T06:33:12.437Z,92.30
2023-03-02T06:34:12.425Z,96.90
2023-03-02T06:35:12.456Z,99.20
2023-03-02T06:36:12.497Z,94.40
2023-03-02T06:37:12.402Z,99.10
2023-03-02T06:38:12.409Z,96.00
2023-03-02T06:39:12.374Z,100.20
2023-03-02T06:40:12.378Z,108.80
2023-03-02T06:41:12.375Z,101.20
2023-03-02T06:42:12.421Z,98.50
2023-03-02T06:43:12.415Z,100.00
2023-03-02T06:44:12.327Z,104.40
2023-03-02T06:45:12.324Z,112.70
2023-03-02T06:46:12.399Z,115.10
2023-03-02T06:47:12.311Z,113.30
2023-03-02T06:48:12.289Z,117.20
2023-03-02T06:49:14.122Z,123.70
2023-03-02T06:50:12.279Z,128.00
2023-03-02T06:51:12.278Z,128.50
2023-03-02T06:52:12.251Z,121.40
2023-03-02T06:53:12.244Z,128.00
2023-03-02T06:54:12.230Z,128.70
2023-03-02T06:55:12.235Z,132.20
2023-03-02T06:56:12.234Z,125.30
2023-03-02T06:57:12.201Z,126.60
2023-03-02T06:58:12.197Z,124.10
2023-03-02T06:59:12.197Z,130.10
2023-03-02T07:00:12.183Z,124.10
2023-03-02T07:01:12.233Z,126.00
2023-03-02T07:02:12.164Z,128.80
2023-03-02T07:03:12.149Z,131.40
2023-03-02T07:04:12.155Z,126.30
2023-03-02T07:05:12.117Z,135.80
2023-03-02T07:06:12.137Z,134.90
2023-03-02T07:07:12.097Z,130.40
2023-03-02T07:08:12.105Z,126.10
2023-03-02T07:09:12.097Z,132.00
2023-03-02T07:10:12.093Z,125.00
2023-03-02T07:11:20.592Z,124.10
2023-03-02T07:12:18.560Z,130.00
2023-03-02T07:13:18.559Z,138.90
2023-03-02T07:14:18.522Z,138.20
2023-03-02T07:15:18.511Z,136.80
2023-03-02T07:16:20.348Z,137.30
2023-03-02T07:17:18.782Z,133.60
2023-03-02T07:18:11.997Z,128.70
2023-03-02T07:19:11.974Z,126.50
2023-03-02T07:20:11.994Z,123.30
2023-03-02T07:21:11.985Z,118.80
2023-03-02T07:22:11.976Z,123.50
2023-03-02T07:23:11.956Z,127.50
2023-03-02T07:24:11.960Z,134.90
2023-03-02T07:25:11.933Z,145.60
2023-03-02T07:26:11.951Z,141.20
2023-03-02T07:27:11.912Z,145.60
2023-03-02T07:28:11.921Z,153.60
2023-03-02T07:29:11.886Z,153.70
2023-03-02T07:30:11.900Z,168.20
2023-03-02T07:31:12.004Z,172.80
2023-03-02T07:32:12.737Z,163.80
2023-03-02T07:33:11.853Z,151.20
2023-03-02T07:34:11.849Z,150.60
2023-03-02T07:35:11.855Z,149.70
2023-03-02T07:36:11.817Z,148.40
2023-03-02T07:37:11.861Z,159.70
2023-03-02T07:38:11.808Z,156.40
2023-03-02T07:39:18.276Z,155.10
2023-03-02T07:40:18.282Z,154.40
2023-03-02T07:41:19.302Z,154.80
2023-03-02T07:42:11.759Z,154.80
2023-03-02T07:43:11.747Z,161.30
2023-03-02T07:44:11.784Z,159.60
2023-03-02T07:45:11.737Z,161.30
2023-03-02T07:46:11.761Z,165.70
2023-03-02T07:47:11.759Z,174.40
2023-03-02T07:48:11.713Z,181.30
2023-03-02T07:49:11.704Z,174.70
2023-03-02T07:50:11.694Z,171.40
2023-03-02T07:51:11.672Z,176.90
2023-03-02T07:52:11.701Z,185.70
2023-03-02T07:53:11.655Z,179.70
2023-03-02T07:54:11.643Z,178.00
2023-03-02T07:55:11.643Z,181.10
2023-03-02T07:56:11.647Z,175.70
2023-03-02T07:57:11.634Z,174.50
2023-03-02T07:58:11.631Z,176.10
2023-03-02T07:59:11.633Z,172.10
2023-03-02T08:00:11.600Z,168.10
2023-03-02T08:01:11.577Z,168.10
2023-03-02T08:02:11.681Z,166.90
2023-03-02T08:03:11.651Z,172.40
2023-03-02T08:04:11.552Z,166.80
2023-03-02T08:05:11.541Z,160.30
2023-03-02T08:06:11.542Z,157.40
2023-03-02T08:07:11.544Z,157.80
2023-03-02T08:08:11.510Z,162.30
2023-03-02T08:09:11.500Z,169.60
2023-03-02T08:10:11.498Z,178.40
2023-03-02T08:11:11.520Z,175.80
2023-03-02T08:12:11.503Z,183.60
2023-03-02T08:13:11.470Z,170.70
2023-03-02T08:14:11.489Z,169.90
2023-03-02T08:15:11.441Z,171.10
2023-03-02T08:16:11.537Z,168.90
2023-03-02T08:17:11.452Z,169.20
2023-03-02T08:18:11.412Z,157.20
2023-03-02T08:19:11.402Z,169.00
2023-03-02T08:20:11.393Z,162.40
2023-03-02T08:21:11.400Z,155.40
2023-03-02T08:22:11.396Z,153.70
2023-03-02T08:23:11.391Z,156.60
2023-03-02T08:24:11.374Z,161.80
2023-03-02T08:25:11.357Z,156.40
2023-03-02T08:26:13.875Z,153.90
2023-03-02T08:27:11.343Z,155.20
2023-03-02T08:28:11.353Z,160.40
2023-03-02T08:29:11.301Z,156.00
2023-03-02T08:30:11.344Z,156.80
2023-03-02T08:31:11.330Z,163.10
2023-03-02T08:32:11.447Z,163.20
2023-03-02T08:33:11.292Z,162.90
2023-03-02T08:34:11.273Z,164.40
2023-03-02T08:35:11.254Z,154.20
2023-03-02T08:36:11.318Z,155.80
2023-03-02T08:37:11.275Z,156.70
2023-03-02T08:38:11.227Z,161.30
2023-03-02T08:39:11.209Z,165.40
2023-03-02T08:40:11.245Z,162.40
2023-03-02T08:41:11.202Z,155.60
2023-03-02T08:42:11.214Z,146.30
2023-03-02T08:43:11.191Z,142.90
2023-03-02T08:44:11.226Z,144.40
2023-03-02T08:45:11.152Z,149.50
2023-03-02T08:46:11.194Z,150.50
2023-03-02T08:47:11.167Z,152.20
2023-03-02T08:48:11.127Z,156.90
2023-03-02T08:49:11.129Z,159.50
2023-03-02T08:50:11.145Z,153.70
2023-03-02T08:51:11.094Z,156.60
2023-03-02T08:52:11.110Z,158.70
2023-03-02T08:53:11.092Z,154.20
2023-03-02T08:54:11.316Z,152.40
2023-03-02T08:55:11.117Z,146.20
2023-03-02T08:56:11.078Z,144.50
2023-03-02T08:57:11.057Z,140.50
2023-03-02T08:58:11.025Z,135.60
2023-03-02T08:59:11.034Z,125.00
2023-03-02T09:00:11.035Z,123.20
2023-03-02T09:01:11.047Z,119.60
2023-03-02T09:02:10.999Z,115.00
2023-03-02T09:03:10.996Z,117.90
2023-03-02T09:04:11.067Z,122.50
2023-03-02T09:05:17.469Z,117.30
2023-03-02T09:06:11.040Z,109.30
2023-03-02T09:07:19.031Z,101.40
2023-03-02T09:08:17.420Z,91.80
2023-03-02T09:09:17.422Z,100.50
2023-03-02T09:10:17.392Z,97.80
2023-03-02T09:11:10.914Z,85.00
2023-03-02T09:12:10.882Z,87.40
2023-03-02T09:13:10.908Z,85.20
2023-03-02T09:14:10.886Z,68.60
2023-03-02T09:15:10.851Z,56.50
2023-03-02T09:16:10.894Z,57.00
2023-03-02T09:17:10.840Z,62.20
2023-03-02T09:18:20.369Z,71.90
2023-03-02T09:19:17.316Z,79.50
2023-03-02T09:20:17.294Z,68.10
2023-03-02T09:21:10.800Z,70.40
2023-03-02T09:22:10.801Z,67.30
2023-03-02T09:23:10.814Z,63.60
2023-03-02T09:24:10.760Z,67.70
2023-03-02T09:25:10.769Z,73.10
2023-03-02T09:26:10.747Z,68.60
2023-03-02T09:27:10.782Z,57.10
2023-03-02T09:28:10.745Z,52.00
2023-03-02T09:29:10.724Z,44.20
2023-03-02T09:30:10.719Z,37.60
2023-03-02T09:31:10.704Z,43.80
2023-03-02T09:32:10.918Z,42.50
2023-03-02T09:33:10.736Z,42.20
2023-03-02T09:34:10.675Z,37.00
2023-03-02T09:35:10.676Z,32.00
2023-03-02T09:36:10.686Z,27.40
2023-03-02T09:37:10.674Z,26.90
2023-03-02T09:38:10.744Z,26.30
2023-03-02T09:39:10.620Z,27.90
2023-03-02T09:40:10.602Z,29.40
2023-03-02T09:41:10.611Z,28.10
2023-03-02T09:42:10.624Z,28.10
2023-03-02T09:43:10.847Z,19.40
2023-03-02T09:44:10.591Z,20.00
2023-03-02T09:45:10.562Z,16.30
2023-03-02T09:46:10.667Z,13.90
2023-03-02T09:47:10.582Z,15.00
2023-03-02T09:48:10.546Z,11.90
2023-03-02T09:49:17.020Z,10.30
2023-03-02T09:50:17.037Z,9.70
2023-03-02T09:51:17.000Z,8.90
2023-03-02T09:52:10.498Z,10.00
2023-03-02T09:53:10.506Z,10.70
2023-03-02T09:54:10.547Z,10.60
2023-03-02T09:55:10.468Z,8.40
2023-03-02T09:56:10.448Z,8.70
2023-03-02T09:57:10.452Z,6.40
2023-03-02T09:58:10.456Z,7.60
2023-03-02T09:59:10.424Z,5.80
2023-03-02T10:00:19.040Z,4.60
2023-03-02T10:01:10.477Z,5.50
2023-03-02T10:02:10.424Z,5.30
2023-03-02T10:03:16.953Z,5.70
2023-03-02T10:04:10.486Z,5.20
2023-03-02T10:05:10.390Z,5.30
2023-03-02T10:06:10.402Z,5.00
2023-03-02T10:07:10.357Z,4.50
2023-03-02T10:08:10.390Z,4.20
2023-03-02T10:09:10.358Z,5.10
2023-03-02T10:10:10.328Z,5.00
2023-03-02T10:11:10.309Z,4.90
2023-03-02T10:12:10.295Z,3.90
2023-03-02T10:13:10.308Z,3.40
2023-03-02T10:14:10.272Z,5.10
2023-03-02T10:15:10.263Z,4.00
2023-03-02T10:16:10.319Z,4.20
2023-03-02T10:17:10.247Z,3.60
2023-03-02T10:18:10.271Z,3.80
2023-03-02T10:19:10.233Z,3.80
2023-03-02T10:20:10.224Z,4.40
2023-03-02T10:21:10.212Z,4.30
2023-03-02T10:22:10.190Z,3.50
2023-03-02T10:23:10.228Z,4.40
2023-03-02T10:24:10.187Z,3.10
2023-03-02T10:25:10.165Z,5.20
2023-03-02T10:26:10.142Z,4.20
2023-03-02T10:27:10.181Z,3.70
2023-03-02T10:28:10.122Z,3.60
2023-03-02T10:29:10.149Z,4.10
2023-03-02T10:30:10.107Z,3.00
2023-03-02T10:31:10.169Z,4.10
2023-03-02T10:32:10.150Z,4.10
2023-03-02T10:33:10.078Z,3.90
2023-03-02T10:34:10.087Z,3.20
2023-03-02T10:35:10.080Z,3.50
2023-03-02T10:36:10.069Z,3.60
2023-03-02T10:37:10.034Z,3.60
2023-03-02T10:38:10.032Z,4.50
2023-03-02T10:39:10.044Z,4.10
2023-03-02T10:40:09.994Z,3.40
2023-03-02T10:41:10.000Z,3.20
2023-03-02T10:42:09.988Z,3.40
2023-03-02T10:43:09.975Z,3.80
2023-03-02T10:44:09.982Z,3.50
2023-03-02T10:45:09.977Z,3.20
2023-03-02T10:46:09.974Z,3.70
2023-03-02T10:47:09.932Z,3.50
2023-03-02T10:48:09.928Z,3.60
2023-03-02T10:49:09.966Z,3.30
2023-03-02T10:50:09.939Z,4.00
2023-03-02T10:51:09.897Z,3.30
2023-03-02T10:52:09.971Z,4.50
2023-03-02T10:53:09.884Z,4.10
2023-03-02T10:54:09.884Z,4.10
2023-03-02T10:55:09.864Z,4.10
2023-03-02T10:56:09.841Z,3.80
2023-03-02T10:57:09.835Z,3.60
2023-03-02T10:58:09.823Z,3.10
2023-03-02T10:59:09.833Z,3.40
2023-03-02T11:00:09.798Z,3.40
2023-03-02T11:01:09.854Z,3.70
2023-03-02T11:02:09.812Z,2.90
2023-03-02T11:03:09.802Z,3.70
2023-03-02T11:04:09.827Z,3.40
2023-03-02T11:05:09.752Z,3.60
2023-03-02T11:06:09.733Z,4.20
2023-03-02T11:07:09.737Z,3.60
2023-03-02T11:08:09.725Z,3.60
2023-03-02T11:09:09.764Z,3.70
2023-03-02T11:10:09.698Z,3.60
2023-03-02T11:11:09.706Z,3.90
2023-03-02T11:12:09.723Z,3.10
2023-03-02T11:13:09.675Z,3.10
2023-03-02T11:14:17.477Z,3.10
2023-03-02T11:15:16.162Z,3.20
2023-03-02T11:16:16.158Z,3.30
2023-03-02T11:17:16.156Z,3.80
2023-03-02T11:18:16.135Z,3.10
2023-03-02T11:19:17.526Z,2.80
2023-03-02T11:20:16.093Z,4.30
2023-03-02T11:21:17.091Z,2.90
2023-03-02T11:22:09.587Z,3.70
2023-03-02T11:23:09.577Z,3.10
2023-03-02T11:24:10.605Z,3.90
2023-03-02T11:25:09.585Z,4.10
2023-03-02T11:26:09.557Z,3.10
2023-03-02T11:27:09.535Z,3.80
2023-03-02T11:28:09.536Z,3.70
2023-03-02T11:29:09.565Z,3.40
2023-03-02T11:30:09.512Z,2.90
2023-03-02T11:31:09.558Z,3.80
2023-03-02T11:32:09.548Z,2.90
2023-03-02T11:33:09.542Z,3.10
2023-03-02T11:34:17.339Z,3.10
2023-03-02T11:35:09.472Z,3.60
2023-03-02T11:36:09.477Z,3.80
2023-03-02T11:37:09.437Z,4.10
2023-03-02T11:38:09.427Z,4.10
2023-03-02T11:39:09.451Z,3.50
2023-03-02T11:40:09.398Z,3.60
2023-03-02T11:41:09.402Z,2.50
2023-03-02T11:42:09.422Z,3.50
2023-03-02T11:43:09.382Z,3.20
2023-03-02T11:44:09.368Z,3.80
2023-03-02T11:45:09.375Z,3.20
2023-03-02T11:46:21.165Z,3.00
2023-03-02T11:47:09.432Z,3.50
2023-03-02T11:48:09.337Z,3.60
2023-03-02T11:49:09.317Z,3.10
2023-03-02T11:50:09.320Z,3.30
2023-03-02T11:51:09.311Z,3.60
2023-03-02T11:52:09.288Z,4.10
2023-03-02T11:53:09.302Z,4.20
2023-03-02T11:54:09.259Z,2.80
2023-03-02T11:55:09.292Z,3.10
2023-03-02T11:56:09.242Z,3.70
2023-03-02T11:57:09.243Z,5.20
2023-03-02T11:58:09.248Z,3.60
2023-03-02T11:59:09.229Z,2.80
2023-03-02T12:00:09.220Z,3.30
2023-03-02T12:01:09.216Z,3.70
2023-03-02T12:02:15.718Z,3.40
2023-03-02T12:03:09.192Z,3.40
2023-03-02T12:04:09.173Z,3.30
2023-03-02T12:05:09.234Z,3.30
2023-03-02T12:06:09.139Z,3.00
2023-03-02T12:07:09.142Z,2.80
2023-03-02T12:08:09.122Z,3.50
2023-03-02T12:09:09.195Z,3.10
2023-03-02T12:10:09.154Z,3.00
2023-03-02T12:11:09.101Z,4.10
2023-03-02T12:12:09.078Z,3.40
2023-03-02T12:13:09.076Z,3.10
2023-03-02T12:14:09.061Z,3.30
2023-03-02T12:15:09.091Z,3.40
2023-03-02T12:16:09.105Z,3.00
2023-03-02T12:17:09.054Z,3.10
2023-03-02T12:18:09.047Z,3.60
2023-03-02T12:19:09.012Z,3.50
2023-03-02T12:20:09.032Z,4.20
2023-03-02T12:21:09.004Z,3.50
2023-03-02T12:22:09.003Z,3.40
2023-03-02T12:23:08.982Z,4.20
2023-03-02T12:24:08.963Z,3.50
2023-03-02T12:25:08.991Z,3.50
2023-03-02T12:26:08.954Z,3.30
2023-03-02T12:27:08.939Z,3.60
2023-03-02T12:28:08.930Z,4.40
2023-03-02T12:29:08.965Z,4.50
2023-03-02T12:30:08.944Z,3.90
2023-03-02T12:31:08.949Z,4.10
2023-03-02T12:32:09.016Z,3.30
2023-03-02T12:33:08.893Z,3.20
2023-03-02T12:34:08.897Z,2.70
2023-03-02T12:35:08.865Z,4.10
2023-03-02T12:36:08.858Z,2.90
2023-03-02T12:37:08.905Z,4.30
2023-03-02T12:38:08.902Z,3.60
2023-03-02T12:39:08.815Z,2.50
2023-03-02T12:40:08.802Z,3.80
2023-03-02T12:41:08.820Z,3.30
2023-03-02T12:42:08.828Z,2.90
2023-03-02T12:43:08.812Z,3.20
2023-03-02T12:44:08.826Z,3.70
2023-03-02T12:45:08.764Z,4.40
2023-03-02T12:46:08.876Z,3.80
2023-03-02T12:47:08.852Z,3.70
2023-03-02T12:48:08.849Z,3.80
2023-03-02T12:49:10.769Z,3.20
2023-03-02T12:50:08.704Z,3.80
2023-03-02T12:51:08.740Z,3.60
2023-03-02T12:52:08.913Z,3.50
2023-03-02T12:53:08.689Z,3.70
2023-03-02T12:54:08.668Z,3.80
2023-03-02T12:55:08.702Z,3.50
2023-03-02T12:56:08.891Z,4.20
2023-03-02T12:57:08.661Z,4.70
2023-03-02T12:58:09.009Z,4.10
2023-03-02T12:59:08.635Z,3.10
2023-03-02T13:00:08.607Z,3.50